createdAt,value
2024-02-23T00:00:21.769Z,0.60
2024-02-23T00:05:25.015Z,0.53
2024-02-23T00:10:28.201Z,0.43
2024-02-23T00:15:33.548Z,0.60
2024-02-23T00:20:37.660Z,0.55
2024-02-23T00:25:40.864Z,0.50
2024-02-23T00:30:46.049Z,0.60
2024-02-23T00:35:49.863Z,0.50
2024-02-23T00:40:53.362Z,0.30
2024-02-23T00:45:58.033Z,0.57
2024-02-23T00:51:01.290Z,0.60
2024-02-23T00:56:04.825Z,0.40
2024-02-23T01:01:09.459Z,0.50
2024-02-23T01:06:12.760Z,0.40
2024-02-23T01:11:16.198Z,0.68
2024-02-23T01:16:20.815Z,0.60
2024-02-23T01:21:24.203Z,0.50
2024-02-23T01:26:28.745Z,0.30
2024-02-23T01:31:33.435Z,0.40
2024-02-23T01:36:37.458Z,0.40
2024-02-23T01:41:41.537Z,0.40
2024-02-23T01:46:46.991Z,0.60
2024-02-23T01:56:56.703Z,0.50
2024-02-23T02:02:02.067Z,0.55
2024-02-23T02:07:06.516Z,0.40
2024-02-23T02:12:10.280Z,0.43
2024-02-23T02:17:14.935Z,0.40
2024-02-23T02:22:18.264Z,0.50
2024-02-23T02:27:21.916Z,0.20
2024-02-23T02:32:26.709Z,0.20
2024-02-23T02:37:30.042Z,0.20
2024-02-23T02:42:33.319Z,0.20
2024-02-23T02:47:38.242Z,0.10
2024-02-23T02:52:41.742Z,0.13
2024-02-23T02:57:46.968Z,0.20
2024-02-23T03:02:51.907Z,0.15
2024-02-23T03:07:55.391Z,0.40
2024-02-23T03:12:58.587Z,0.40
2024-02-23T03:18:03.584Z,0.47
2024-02-23T03:23:06.966Z,0.35
2024-02-23T03:28:10.269Z,0.30
2024-02-23T03:33:14.931Z,0.43
2024-02-23T03:38:18.654Z,0.20
2024-02-23T03:43:22.179Z,0.30
2024-02-23T03:48:27.184Z,0.10
2024-02-23T03:53:30.466Z,0.38
2024-02-23T03:58:33.706Z,0.30
2024-02-23T04:03:38.270Z,0.38
2024-02-23T04:08:43.149Z,0.43
2024-02-23T04:13:48.482Z,0.20
2024-02-23T04:18:55.664Z,0.30
2024-02-23T04:23:58.975Z,0.40
2024-02-23T04:29:02.195Z,0.22
2024-02-23T04:34:06.998Z,0.35
2024-02-23T04:39:10.273Z,0.50
2024-02-23T04:44:13.468Z,0.30
2024-02-23T04:49:18.705Z,0.55
2024-02-23T04:54:22.796Z,0.85
2024-02-23T04:59:26.132Z,0.40
2024-02-23T05:04:30.843Z,0.40
2024-02-23T05:09:34.091Z,0.87
2024-02-23T05:14:37.678Z,0.25
2024-02-23T05:19:42.753Z,0.38
2024-02-23T05:24:46.708Z,0.20
2024-02-23T05:29:50.295Z,0.20
2024-02-23T05:34:55.932Z,0.30
2024-02-23T05:40:00.981Z,0.28
2024-02-23T05:45:06.022Z,0.50
2024-02-23T05:50:12.077Z,0.40
2024-02-23T05:55:15.813Z,0.20
2024-02-23T06:00:20.700Z,0.15
2024-02-23T06:05:27.993Z,0.10
2024-02-23T06:10:32.150Z,0.50
2024-02-23T06:15:35.617Z,0.50
2024-02-23T06:20:40.254Z,0.32
2024-02-23T06:25:44.709Z,0.50
2024-02-23T06:30:49.528Z,0.25
2024-02-23T06:35:54.568Z,0.40
2024-02-23T06:40:58.702Z,0.35
2024-02-23T06:46:07.004Z,0.30
2024-02-23T06:51:11.693Z,0.52
2024-02-23T06:56:15.429Z,0.30
2024-02-23T07:01:18.645Z,0.40
2024-02-23T07:06:23.427Z,1.58
2024-02-23T07:11:26.891Z,0.43
2024-02-23T07:16:30.239Z,0.38
2024-02-23T07:21:34.827Z,0.43
2024-02-23T07:26:38.206Z,1.20
2024-02-23T07:31:41.523Z,0.40
2024-02-23T07:36:46.534Z,0.70
2024-02-23T07:41:49.943Z,0.40
2024-02-23T07:46:55.705Z,0.50
2024-02-23T07:52:00.805Z,0.50
2024-02-23T07:57:05.614Z,0.60
2024-02-23T08:02:08.895Z,0.47
2024-02-23T08:07:13.912Z,0.95
2024-02-23T08:12:17.349Z,0.40
2024-02-23T08:17:20.873Z,0.40
2024-02-23T08:22:25.594Z,0.30
2024-02-23T08:27:28.766Z,0.30
2024-02-23T08:32:32.230Z,0.40
2024-02-23T08:37:36.933Z,0.70
2024-02-23T08:42:40.213Z,0.70
2024-02-23T08:47:44.305Z,0.50
2024-02-23T08:52:49.055Z,0.60
2024-02-23T08:57:52.578Z,0.88
2024-02-23T09:02:56.028Z,1.02
2024-02-23T09:08:00.992Z,0.63
2024-02-23T09:13:04.508Z,0.95
2024-02-23T09:18:08.122Z,0.60
2024-02-23T09:23:13.041Z,0.50
2024-02-23T09:28:16.366Z,0.50
2024-02-23T09:33:19.706Z,0.40
2024-02-23T09:38:25.701Z,0.60
2024-02-23T09:43:33.247Z,0.70
2024-02-23T09:48:43.550Z,0.80
2024-02-23T09:53:51.704Z,0.45
2024-02-23T09:58:57.539Z,0.40
2024-02-23T10:04:01.796Z,0.50
2024-02-23T10:09:06.657Z,0.40
2024-02-23T10:14:10.951Z,0.40
2024-02-23T10:19:14.149Z,0.22
2024-02-23T10:24:20.288Z,0.38
2024-02-23T10:29:23.828Z,0.60
2024-02-23T10:34:28.811Z,0.55
2024-02-23T10:39:33.506Z,0.50
2024-02-23T10:44:37.962Z,1.00
2024-02-23T10:49:42.584Z,0.50
2024-02-23T10:54:48.612Z,0.47
2024-02-23T10:59:52.415Z,0.55
2024-02-23T11:04:58.563Z,0.52
2024-02-23T11:10:04.121Z,0.50
2024-02-23T11:20:29.612Z,0.95
2024-02-23T11:25:35.710Z,0.80
2024-02-23T11:30:40.675Z,0.80
2024-02-23T11:35:50.683Z,0.40
2024-02-23T11:40:55.434Z,0.60
2024-02-23T11:45:58.786Z,0.60
2024-02-23T11:51:02.271Z,1.10
2024-02-23T11:56:07.961Z,1.50
2024-02-23T12:01:11.869Z,0.85
2024-02-23T12:06:17.795Z,0.98
2024-02-23T12:11:22.574Z,1.50
2024-02-23T12:16:25.832Z,0.77
2024-02-23T12:21:29.039Z,0.60
2024-02-23T12:26:33.624Z,1.13
2024-02-23T12:31:37.441Z,0.80
2024-02-23T12:36:41.756Z,0.85
2024-02-23T12:41:46.749Z,0.93
2024-02-23T12:46:49.919Z,0.95
2024-02-23T12:51:53.309Z,1.33
2024-02-23T12:56:58.187Z,1.10
2024-02-23T13:02:01.694Z,0.77
2024-02-23T13:07:05.128Z,0.70
2024-02-23T13:12:10.101Z,0.80
2024-02-23T13:17:13.489Z,0.73
2024-02-23T13:22:17.175Z,0.70
2024-02-23T13:27:21.973Z,0.80
2024-02-23T13:32:25.515Z,0.93
2024-02-23T13:37:28.934Z,1.10
2024-02-23T13:42:33.930Z,1.05
2024-02-23T13:47:37.459Z,2.42
2024-02-23T13:52:41.083Z,0.80
2024-02-23T13:57:45.849Z,0.73
2024-02-23T14:02:50.029Z,0.43
2024-02-23T14:07:54.955Z,0.57
2024-02-23T14:12:59.839Z,0.80
2024-02-23T14:18:03.112Z,0.87
2024-02-23T14:23:06.637Z,0.90
2024-02-23T14:28:11.628Z,0.60
2024-02-23T14:33:15.355Z,0.93
2024-02-23T14:38:18.983Z,0.45
2024-02-23T14:43:23.845Z,0.65
2024-02-23T14:48:27.207Z,1.30
2024-02-23T14:53:30.543Z,0.98
2024-02-23T14:58:35.221Z,0.80
2024-02-23T15:03:38.845Z,0.83
2024-02-23T15:08:42.258Z,0.68
2024-02-23T15:13:47.407Z,1.20
2024-02-23T15:18:50.653Z,0.65
2024-02-23T15:23:54.588Z,1.35
2024-02-23T15:28:59.324Z,0.75
2024-02-23T15:34:03.470Z,0.53
2024-02-23T15:39:07.477Z,1.42
2024-02-23T15:44:12.561Z,0.90
2024-02-23T15:49:34.283Z,1.23
2024-02-23T15:54:42.783Z,1.10
2024-02-23T15:59:54.304Z,0.60
2024-02-23T16:05:09.336Z,1.35
2024-02-23T16:10:14.146Z,0.57
2024-02-23T16:15:20.007Z,1.17
2024-02-23T16:20:23.399Z,0.97
2024-02-23T16:25:26.835Z,0.90
2024-02-23T16:30:33.688Z,0.50
2024-02-23T16:35:37.295Z,0.65
2024-02-23T16:40:41.847Z,0.90
2024-02-23T16:45:46.660Z,1.27
2024-02-23T16:50:52.246Z,1.03
2024-02-23T17:01:08.417Z,0.90
2024-02-23T17:06:11.899Z,1.15
2024-02-23T17:11:15.305Z,1.80
2024-02-23T17:16:22.431Z,1.23
2024-02-23T17:21:25.869Z,0.73
2024-02-23T17:26:29.273Z,1.92
2024-02-23T17:31:34.040Z,1.25
2024-02-23T17:36:43.585Z,1.50
2024-02-23T17:41:47.596Z,2.15
2024-02-23T17:46:52.599Z,1.98
2024-02-23T17:51:55.924Z,1.48
2024-02-23T17:56:59.369Z,1.70
2024-02-23T18:02:04.282Z,2.13
2024-02-23T18:07:07.590Z,1.80
2024-02-23T18:12:11.019Z,1.58
2024-02-23T18:17:16.211Z,1.60
2024-02-23T18:22:19.580Z,1.40
2024-02-23T18:27:23.164Z,2.20
2024-02-23T18:32:27.921Z,1.48
2024-02-23T18:37:31.330Z,1.60
2024-02-23T18:42:34.545Z,1.65
2024-02-23T18:47:39.790Z,1.75
2024-02-23T18:52:43.151Z,1.85
2024-02-23T18:57:46.425Z,1.70
2024-02-23T19:02:51.161Z,1.65
2024-02-23T19:07:54.527Z,2.57
2024-02-23T19:12:58.315Z,1.95
2024-02-23T19:18:04.563Z,1.38
2024-02-23T19:23:10.141Z,1.30
2024-02-23T19:33:18.112Z,1.67
2024-02-23T19:38:21.733Z,1.27
2024-02-23T19:43:25.080Z,1.90
2024-02-23T19:48:30.096Z,1.70
2024-02-23T19:53:34.076Z,1.50
2024-02-23T19:58:37.815Z,3.80
2024-02-23T20:03:42.600Z,1.48
2024-02-23T20:08:46.390Z,1.30
2024-02-23T20:13:49.802Z,2.17
2024-02-23T20:18:54.534Z,1.80
2024-02-23T20:23:58.045Z,1.40
2024-02-23T20:29:01.341Z,1.58
2024-02-23T20:34:08.442Z,1.52
2024-02-23T20:39:12.112Z,2.25
2024-02-23T20:44:15.764Z,1.70
2024-02-23T20:49:20.507Z,1.90
2024-02-23T20:54:23.882Z,1.60
2024-02-23T20:59:27.730Z,1.48
2024-02-23T21:04:33.067Z,1.70
2024-02-23T21:09:37.947Z,2.00
2024-02-23T21:14:44.473Z,1.73
2024-02-23T21:19:49.361Z,1.60
2024-02-23T21:24:52.951Z,1.67
2024-02-23T21:29:58.390Z,2.00
2024-02-23T21:35:03.060Z,1.90
2024-02-23T21:40:07.490Z,2.20
2024-02-23T21:45:11.666Z,2.67
2024-02-23T21:50:18.244Z,1.65
2024-02-23T21:55:23.160Z,2.42
2024-02-23T22:00:26.473Z,1.95
2024-02-23T22:05:31.616Z,2.30
2024-02-23T22:10:35.329Z,2.92
2024-02-23T22:15:38.920Z,2.40
2024-02-23T22:20:43.858Z,2.58
2024-02-23T22:25:47.247Z,2.90
2024-02-23T22:30:51.142Z,2.55
2024-02-23T22:35:55.834Z,2.30
2024-02-23T22:40:59.094Z,2.13
2024-02-23T22:46:02.598Z,2.10
2024-02-23T22:51:08.328Z,2.45
2024-02-23T22:56:11.569Z,2.03
2024-02-23T23:01:14.785Z,2.80
2024-02-23T23:06:27.645Z,2.78
2024-02-23T23:11:34.629Z,3.25
2024-02-23T23:16:38.002Z,3.03
2024-02-23T23:21:42.669Z,3.25
2024-02-23T23:26:46.733Z,3.07
2024-02-23T23:31:49.970Z,3.33
2024-02-23T23:36:54.637Z,3.60
2024-02-23T23:41:57.939Z,3.13
2024-02-23T23:47:01.669Z,3.35
2024-02-23T23:52:07.435Z,3.60
2024-02-23T23:57:10.764Z,3.03
